Shults, OK

10:53 AM CDT on July 24, 2014 (GMT -0500)
Fuller Farms (KOKHAWOR1) Elev 433 ft | 33.82 °N, 94.71 °W | Change Station

Current weather conditions updated 7 seconds ago

Mostly Cloudy
Mostly Cloudy
77.0 °F
Feels Like 79 °F
N
0.0
Wind Variable Wind from NNE
Gusts 0.0 mph

Today is forecast to be nearly the same temperature as yesterday.

Today
High -- | Low -- °F
--% Chance of Precip.
Yesterday
High -- | Low -- °F
Precip. -- in
6:25 AM 8:25 PM
Waning Crescent, 5% visible
Pressure 30.09 in
Visibility 10.0 miles
Clouds Mostly Cloudy 800 ft
Heat Index 79 °F
Dew Point 71 °F
Humidity 81%
Rainfall 0.00 in
Snow Depth Not available.
UV 4 out of 12
Pollen 4.60 out of 12
Air Quality Not available.
Flu Activity Not available.
METAR K4O4 241535Z AUTO 03004KT 10SM BKN008 25/20 A3009 RMK AO2

More Conditions Fewer Conditions

Pressure 30.09 in
Visibility 10.0 miles
Clouds Mostly Cloudy 800 ft
Heat Index 79 °F
Dew Point 71 °F
Humidity 81%
Rainfall 0.00 in
Snow Depth Not available.
UV 4 out of 12
Pollen 4.60 out of 12
Air Quality Not available.
Flu Activity Not available.
METAR K4O4 241535Z AUTO 03004KT 10SM BKN008 25/20 A3009 RMK AO2

More Conditions Fewer Conditions

10-Day Weather Forecast

Almanac

Astronomy

Jul. 24, 2014 Rise Set
Actual Time 6:25 AM CDT 8:25 PM CDT
Civil Twilight 5:57 AM CDT 8:53 PM CDT
Nautical Twilight 5:23 AM CDT 9:27 PM CDT
Astronomical Twilight 4:46 AM CDT 10:03 PM CDT
Moon 4:32 AM CDT 6:42 PM CDT
Length of Visible Light 14h 56m
Length of Day
14h 00m
Tomorrow will be 1m 22s shorter.
Waning Crescent, 5% of the Moon is Illuminated
Today
Waning Crescent
Jul 26
New
Aug 3
First Quarter
Aug 10
Full
Aug 17
Last Quarter

Today's Extremes

State Highs State Lows

Community

WunderPhotos

Upload Photos

1,737,042 photos uploaded!

Nearby

Snow Depth

Station Depth Elevation
No new snow has been reported.

Earthquake Activity

City Distance Mag. Time & Date
No recent earthquake activity has been reported nearby.
Minimum magnitude displayed is 2.5.

Coastal Water Temperatures

Place Temperature
No Stations Reporting

Nearby Weather Stations

Station Location Temp. Heat Index Dew Point Humidity Wind Precip. Elev Updated Type
Fuller Farms, Haworth, OK 77.0 °F 79 °F 71 °F 81% NNE  at  0.0 mph 0.00 in / hr 433 ft 10:53 AM CDT Rapid Fire
Ron Baker WW5G Little River, Broken Bow, OK 82.8 °F 85 °F 66 °F 58% North  at  0.0 mph 0.00 in / hr 395 ft 10:53 AM CDT Rapid Fire
APRSWXNET Broken Bow OK , Broken Bow, OK 74 °F 70 °F 74 °F 99% West  at  0 mph 0.00 in / hr 109 ft 9:50 AM CDT MADIS
RAWS BROKEN BOW OK, Broken Bow, OK 74 °F 73 °F 70 °F 88% East  at  4 mph 0.00 in / hr 500 ft 10:02 AM CDT MADIS

Show More Stations Show Fewer Stations